Aérodrome :
LOGIN :

S'inscrire | Disclaimer

   EN    FR    IT 

 










Légende :    VFR   VFR Marginal   IFR   IFR Intensif   IFR Très Intensif
Visi : 
Plafond : 
>= 8 km
>= 3000ft
5 à 8 km
1000 à 3000 ft
1500m à 5 km
500 à 1000 ft
800 à 1500m
200 à 500 ft
< 800m
< 200 ft
Symboles :   Orages  Brouillard  Fortes neiges  Fortes précipitations  Vent > 20 kt
SIGMETs :   Divers  Orages  Givrage  Turbulence  Onde Orograph.  Cendres Volcan.







- Altitude de l'aérodrome : 106 ft
- Code IATA : XDA
- Voir les cartes d'approche


LFBY - Dax Seyresse

DERNIER METAR :
  • 221600Z VRB03KT 6000 SCT020 BKN033 OVC086 08/06 Q1010

METARs EXPIRÉS :
  • 221400Z VRB02KT 6000 SCT015 SCT033 OVC100 08/07 Q1010

TAF TAF LFBY
Valide du 22 à 09h jusqu'au 22 à 18h UTC


220800Z 2209/2218 20015KT 5000 RA SCT010 OVC015
TEMPO 2209/2213 23015G25KT 2000 SHRA BKN005 OVC015
BECMG 2213/2215 30010KT 9999 SCT030TCU
TEMPO 2215/2218 30015G25KT 2000 SHRA BKN025CB
Pas de NOTAMs connus pour ce terrain.



MET'MAP, la Météo Aéronautique d'un coup d'oeil ! - Copyright ORBIFLY Décembre 2007 - Disclaimer

ORBIFLY MET'MAP TEAM :

Programmation & Développement : Alexandra Zaïnal
Conception & Développement : Baudouin d'Aumeries
Co-Programmation & Développement : Marc-Olivier Méhu
Soutien technique & logistique : Manuel Goepfert

Contact : metmap@orbifly.com




SOURCES & CREDITS :

   NOAA